Time,TemperatureF,DewpointF,PressureIn,WindDirection,WindDirectionDegrees,WindSpeedMPH,WindSpeedGustMPH,Humidity,HourlyPrecipIn,Conditions,Clouds,dailyrainin,SoftwareType,DateUTC
2015-04-25 00:11:00,51.0,38.0,-100.00,ESE,105,0.0,0.0,62,-99.99,,,-99.99,,2015-04-25 06:11:00,
2015-04-25 00:21:00,51.0,38.0,-100.00,ESE,105,0.0,0.0,62,-99.99,,,-99.99,,2015-04-25 06:21:00,
2015-04-25 00:42:00,50.0,38.0,-100.00,ESE,120,0.0,0.0,63,-99.99,,,-99.99,,2015-04-25 06:42:00,
2015-04-25 01:11:00,49.0,38.0,-100.00,ESE,110,0.0,4.0,66,-99.99,,,-99.99,,2015-04-25 07:11:00,
2015-04-25 01:21:00,49.0,38.0,-100.00,ESE,110,0.0,4.0,66,-99.99,,,-99.99,,2015-04-25 07:21:00,
2015-04-25 01:41:00,48.0,38.0,-100.00,ESE,110,6.0,7.0,68,-99.99,,,-99.99,,2015-04-25 07:41:00,
2015-04-25 02:11:00,48.0,39.0,-100.00,East,100,0.0,0.0,70,-99.99,,,-99.99,,2015-04-25 08:11:00,
2015-04-25 02:21:00,48.0,39.0,-100.00,East,100,0.0,0.0,70,-99.99,,,-99.99,,2015-04-25 08:21:00,
2015-04-25 02:42:00,48.0,39.0,-100.00,ESE,110,4.0,5.0,70,-99.99,,,-99.99,,2015-04-25 08:42:00,
2015-04-25 03:11:00,48.0,39.0,-100.00,SE,125,4.0,7.0,70,-99.99,,,-99.99,,2015-04-25 09:11:00,
2015-04-25 03:21:00,48.0,39.0,-100.00,SE,125,4.0,7.0,70,-99.99,,,-99.99,,2015-04-25 09:21:00,
2015-04-25 03:41:00,48.0,39.0,-100.00,WSW,245,0.0,0.0,71,-99.99,,,-99.99,,2015-04-25 09:41:00,
2015-04-25 04:11:00,48.0,39.0,-100.00,SE,135,0.0,7.0,72,-99.99,,,-99.99,,2015-04-25 10:11:00,
2015-04-25 04:21:00,48.0,39.0,-100.00,SE,135,0.0,7.0,72,-99.99,,,-99.99,,2015-04-25 10:21:00,
2015-04-25 04:41:00,47.0,40.0,-100.00,East,85,0.0,4.0,77,-99.99,,,-99.99,,2015-04-25 10:41:00,
2015-04-25 05:11:00,47.0,41.0,-100.00,SSW,210,0.0,0.0,78,-99.99,,,-99.99,,2015-04-25 11:11:00,
2015-04-25 05:21:00,47.0,41.0,-100.00,SSW,210,0.0,0.0,78,-99.99,,,-99.99,,2015-04-25 11:21:00,
2015-04-25 05:42:00,47.0,41.0,-100.00,ESE,105,2.0,4.0,78,-99.99,,,-99.99,,2015-04-25 11:42:00,
2015-04-25 06:11:00,47.0,41.0,-100.00,ENE,65,3.0,5.0,78,-99.99,,,-99.99,,2015-04-25 12:11:00,
2015-04-25 06:21:00,47.0,41.0,-100.00,ENE,65,3.0,5.0,78,-99.99,,,-99.99,,2015-04-25 12:21:00,
2015-04-25 06:42:00,47.0,41.0,-100.00,South,190,0.0,0.0,78,-99.99,,,-99.99,,2015-04-25 12:42:00,
2015-04-25 07:11:00,47.0,41.0,-100.00,ESE,115,0.0,0.0,79,-99.99,,,-99.99,,2015-04-25 13:11:00,
2015-04-25 07:21:00,47.0,41.0,-100.00,ESE,115,0.0,0.0,79,-99.99,,,-99.99,,2015-04-25 13:21:00,
2015-04-25 07:42:00,47.0,42.0,-100.00,East,90,2.0,4.0,80,-99.99,,,-99.99,,2015-04-25 13:42:00,
2015-04-25 08:11:00,48.0,42.0,-100.00,South,175,4.0,9.0,80,-99.99,,,-99.99,,2015-04-25 14:11:00,
2015-04-25 08:21:00,48.0,42.0,-100.00,South,175,4.0,9.0,80,-99.99,,,-99.99,,2015-04-25 14:21:00,
2015-04-25 08:42:00,47.0,43.0,-100.00,West,280,17.0,24.0,84,-99.99,,,-99.99,,2015-04-25 14:42:00,
2015-04-25 09:11:00,46.0,42.0,-100.00,West,265,15.0,19.0,87,-99.99,,,-99.99,,2015-04-25 15:11:00,
2015-04-25 09:21:00,46.0,42.0,-100.00,West,265,15.0,19.0,87,-99.99,,,-99.99,,2015-04-25 15:21:00,
2015-04-25 09:42:00,45.0,43.0,-100.00,WSW,240,9.0,18.0,91,-99.99,,,-99.99,,2015-04-25 15:42:00,
2015-04-25 10:11:00,45.0,42.0,-100.00,SW,230,6.0,14.0,90,-99.99,,,-99.99,,2015-04-25 16:11:00,
2015-04-25 10:21:00,45.0,42.0,-100.00,SW,230,6.0,14.0,90,-99.99,,,-99.99,,2015-04-25 16:21:00,
2015-04-25 10:41:00,44.0,42.0,-100.00,East,95,6.0,11.0,95,-99.99,,,-99.99,,2015-04-25 16:41:00,
2015-04-25 11:11:00,43.0,42.0,-100.00,East,90,3.0,11.0,96,-99.99,,,-99.99,,2015-04-25 17:11:00,
2015-04-25 11:21:00,43.0,42.0,-100.00,East,90,3.0,11.0,96,-99.99,,,-99.99,,2015-04-25 17:21:00,
2015-04-25 11:42:00,46.0,45.0,-100.00,SW,215,0.0,0.0,96,-99.99,,,-99.99,,2015-04-25 17:42:00,
2015-04-25 12:11:00,46.0,44.0,-100.00,SE,130,0.0,0.0,94,-99.99,,,-99.99,,2015-04-25 18:11:00,
2015-04-25 12:22:00,46.0,44.0,-100.00,SE,130,0.0,0.0,94,-99.99,,,-99.99,,2015-04-25 18:22:00,
2015-04-25 12:42:00,49.0,46.0,-100.00,East,85,0.0,0.0,91,-99.99,,,-99.99,,2015-04-25 18:42:00,
2015-04-25 13:11:00,52.0,48.0,-100.00,East,85,1.0,5.0,84,-99.99,,,-99.99,,2015-04-25 19:11:00,
2015-04-25 13:22:00,52.0,48.0,-100.00,East,85,1.0,5.0,84,-99.99,,,-99.99,,2015-04-25 19:22:00,
2015-04-25 13:42:00,54.0,45.0,-100.00,East,95,4.0,7.0,72,-99.99,,,-99.99,,2015-04-25 19:42:00,
2015-04-25 14:11:00,56.0,44.0,-100.00,SE,135,1.0,6.0,63,-99.99,,,-99.99,,2015-04-25 20:11:00,
2015-04-25 14:21:00,56.0,44.0,-100.00,SE,135,1.0,6.0,63,-99.99,,,-99.99,,2015-04-25 20:21:00,
2015-04-25 14:41:00,58.0,42.0,-100.00,East,90,1.0,6.0,55,-99.99,,,-99.99,,2015-04-25 20:41:00,
2015-04-25 15:11:00,60.0,43.0,-100.00,East,100,2.0,7.0,52,-99.99,,,-99.99,,2015-04-25 21:11:00,
2015-04-25 15:21:00,60.0,43.0,-100.00,East,100,2.0,7.0,52,-99.99,,,-99.99,,2015-04-25 21:21:00,
2015-04-25 15:41:00,59.0,41.0,-100.00,ESE,115,6.0,10.0,51,-99.99,,,-99.99,,2015-04-25 21:41:00,
2015-04-25 16:11:00,59.0,40.0,-100.00,SE,125,3.0,9.0,49,-99.99,,,-99.99,,2015-04-25 22:11:00,
2015-04-25 16:21:00,59.0,40.0,-100.00,SE,125,3.0,9.0,49,-99.99,,,-99.99,,2015-04-25 22:21:00,
2015-04-25 16:41:00,57.0,38.0,-100.00,ESE,105,0.0,4.0,49,-99.99,,,-99.99,,2015-04-25 22:41:00,
2015-04-25 17:11:00,56.0,38.0,-100.00,West,275,4.0,7.0,49,-99.99,,,-99.99,,2015-04-25 23:11:00,
2015-04-25 17:21:00,56.0,38.0,-100.00,West,275,4.0,7.0,49,-99.99,,,-99.99,,2015-04-25 23:21:00,
2015-04-25 17:42:00,51.0,45.0,-100.00,West,280,4.0,6.0,79,-99.99,,,-99.99,,2015-04-25 23:42:00,
2015-04-25 18:11:00,52.0,47.0,-100.00,ESE,120,1.0,4.0,83,-99.99,,,-99.99,,2015-04-26 00:11:00,
2015-04-25 18:21:00,52.0,47.0,-100.00,ESE,120,1.0,4.0,83,-99.99,,,-99.99,,2015-04-26 00:21:00,
2015-04-25 18:42:00,51.0,46.0,-100.00,NE,50,1.0,7.0,80,-99.99,,,-99.99,,2015-04-26 00:42:00,
2015-04-25 19:11:00,51.0,47.0,-100.00,SSE,150,0.0,6.0,83,-99.99,,,-99.99,,2015-04-26 01:11:00,
2015-04-25 19:21:00,51.0,47.0,-100.00,SSE,150,0.0,6.0,83,-99.99,,,-99.99,,2015-04-26 01:21:00,
2015-04-25 19:41:00,49.0,46.0,-100.00,SSE,165,0.0,2.0,90,-99.99,,,-99.99,,2015-04-26 01:41:00,
2015-04-25 20:11:00,48.0,46.0,-100.00,ENE,70,4.0,6.0,94,-99.99,,,-99.99,,2015-04-26 02:11:00,
2015-04-25 20:21:00,48.0,46.0,-100.00,ENE,70,4.0,6.0,94,-99.99,,,-99.99,,2015-04-26 02:21:00,
2015-04-25 20:41:00,47.0,46.0,-100.00,ESE,105,4.0,11.0,95,-99.99,,,-99.99,,2015-04-26 02:41:00,
2015-04-25 20:51:00,47.0,46.0,-100.00,ESE,105,4.0,11.0,95,-99.99,,,-99.99,,2015-04-26 02:51:00,
2015-04-25 21:11:00,47.0,46.0,-100.00,SSE,165,0.0,0.0,95,-99.99,,,-99.99,,2015-04-26 03:11:00,
2015-04-25 21:21:00,47.0,46.0,-100.00,SSE,165,0.0,0.0,95,-99.99,,,-99.99,,2015-04-26 03:21:00,
2015-04-25 21:41:00,47.0,46.0,-100.00,SW,230,0.0,0.0,95,-99.99,,,-99.99,,2015-04-26 03:41:00,
2015-04-25 22:11:00,47.0,46.0,-100.00,SE,125,0.0,4.0,95,-99.99,,,-99.99,,2015-04-26 04:11:00,
2015-04-25 22:21:00,47.0,46.0,-100.00,SE,125,0.0,4.0,95,-99.99,,,-99.99,,2015-04-26 04:21:00,
2015-04-25 22:41:00,47.0,46.0,-100.00,SE,135,0.0,4.0,95,-99.99,,,-99.99,,2015-04-26 04:41:00,